sensor_id;sensor_type;location;lat;lon;timestamp;P1;durP1;ratioP1;P2;durP2;ratioP2
74904;SDS011;63465;50.862;6.220;2023-07-13T00:00:28;6.50;;;1.67;;
74904;SDS011;63465;50.862;6.220;2023-07-13T00:02:54;5.10;;;1.70;;
74904;SDS011;63465;50.862;6.220;2023-07-13T00:05:20;10.90;;;1.37;;
74904;SDS011;63465;50.862;6.220;2023-07-13T00:07:46;4.80;;;1.60;;
74904;SDS011;63465;50.862;6.220;2023-07-13T00:10:11;1.97;;;1.47;;
74904;SDS011;63465;50.862;6.220;2023-07-13T00:12:37;3.80;;;1.77;;
74904;SDS011;63465;50.862;6.220;2023-07-13T00:15:05;6.30;;;2.40;;
74904;SDS011;63465;50.862;6.220;2023-07-13T00:17:34;4.23;;;1.83;;
74904;SDS011;63465;50.862;6.220;2023-07-13T00:20:00;4.50;;;1.40;;
74904;SDS011;63465;50.862;6.220;2023-07-13T00:22:25;3.47;;;1.50;;
74904;SDS011;63465;50.862;6.220;2023-07-13T00:24:54;3.70;;;1.33;;
74904;SDS011;63465;50.862;6.220;2023-07-13T00:27:22;3.00;;;1.57;;
74904;SDS011;63465;50.862;6.220;2023-07-13T00:39:53;5.50;;;1.47;;
74904;SDS011;63465;50.862;6.220;2023-07-13T00:42:18;7.30;;;1.27;;
74904;SDS011;63465;50.862;6.220;2023-07-13T00:47:36;3.90;;;1.87;;
74904;SDS011;63465;50.862;6.220;2023-07-13T00:50:02;4.30;;;1.50;;
74904;SDS011;63465;50.862;6.220;2023-07-13T00:52:31;4.27;;;1.90;;
74904;SDS011;63465;50.862;6.220;2023-07-13T00:54:57;2.27;;;1.93;;
74904;SDS011;63465;50.862;6.220;2023-07-13T00:57:23;2.10;;;1.50;;
74904;SDS011;63465;50.862;6.220;2023-07-13T00:59:50;2.73;;;1.40;;
74904;SDS011;63465;50.862;6.220;2023-07-13T01:02:18;3.07;;;1.47;;
74904;SDS011;63465;50.862;6.220;2023-07-13T01:04:46;2.53;;;1.53;;
74904;SDS011;63465;50.862;6.220;2023-07-13T01:07:12;8.63;;;2.10;;
74904;SDS011;63465;50.862;6.220;2023-07-13T01:09:37;4.93;;;1.63;;
74904;SDS011;63465;50.862;6.220;2023-07-13T01:12:03;5.93;;;1.60;;
74904;SDS011;63465;50.862;6.220;2023-07-13T01:14:28;4.17;;;1.90;;
74904;SDS011;63465;50.862;6.220;2023-07-13T01:16:54;5.40;;;2.10;;
74904;SDS011;63465;50.862;6.220;2023-07-13T01:19:32;2.40;;;1.50;;
74904;SDS011;63465;50.862;6.220;2023-07-13T01:22:04;4.67;;;1.83;;
74904;SDS011;63465;50.862;6.220;2023-07-13T01:24:36;2.10;;;1.57;;
74904;SDS011;63465;50.862;6.220;2023-07-13T01:27:03;4.20;;;1.73;;
74904;SDS011;63465;50.862;6.220;2023-07-13T01:29:29;1.70;;;1.60;;
74904;SDS011;63465;50.862;6.220;2023-07-13T01:31:56;3.07;;;2.03;;
74904;SDS011;63465;50.862;6.220;2023-07-13T01:34:21;3.63;;;1.60;;
74904;SDS011;63465;50.862;6.220;2023-07-13T01:36:46;3.20;;;1.53;;
74904;SDS011;63465;50.862;6.220;2023-07-13T01:39:12;4.70;;;1.73;;
74904;SDS011;63465;50.862;6.220;2023-07-13T01:41:37;10.87;;;2.40;;
74904;SDS011;63465;50.862;6.220;2023-07-13T01:44:03;6.73;;;1.80;;
74904;SDS011;63465;50.862;6.220;2023-07-13T01:46:28;3.93;;;1.77;;
74904;SDS011;63465;50.862;6.220;2023-07-13T01:48:53;5.37;;;2.00;;
74904;SDS011;63465;50.862;6.220;2023-07-13T01:51:19;5.23;;;1.60;;
74904;SDS011;63465;50.862;6.220;2023-07-13T01:53:45;7.43;;;2.30;;
74904;SDS011;63465;50.862;6.220;2023-07-13T01:56:10;1.87;;;1.57;;
74904;SDS011;63465;50.862;6.220;2023-07-13T01:58:36;2.10;;;1.90;;
74904;SDS011;63465;50.862;6.220;2023-07-13T02:01:01;5.43;;;1.67;;
74904;SDS011;63465;50.862;6.220;2023-07-13T02:03:26;3.90;;;1.60;;
74904;SDS011;63465;50.862;6.220;2023-07-13T02:05:52;5.63;;;1.80;;
74904;SDS011;63465;50.862;6.220;2023-07-13T02:08:17;4.40;;;2.10;;
74904;SDS011;63465;50.862;6.220;2023-07-13T02:10:42;5.10;;;1.60;;
74904;SDS011;63465;50.862;6.220;2023-07-13T02:13:08;1.57;;;1.43;;
74904;SDS011;63465;50.862;6.220;2023-07-13T02:15:33;3.50;;;2.10;;
74904;SDS011;63465;50.862;6.220;2023-07-13T02:17:58;3.60;;;1.70;;
74904;SDS011;63465;50.862;6.220;2023-07-13T02:20:24;1.63;;;1.33;;
74904;SDS011;63465;50.862;6.220;2023-07-13T02:22:51;3.30;;;1.67;;
74904;SDS011;63465;50.862;6.220;2023-07-13T02:25:17;2.13;;;1.40;;
74904;SDS011;63465;50.862;6.220;2023-07-13T02:27:42;1.60;;;1.50;;
74904;SDS011;63465;50.862;6.220;2023-07-13T02:30:08;4.47;;;1.83;;
74904;SDS011;63465;50.862;6.220;2023-07-13T02:32:37;1.73;;;1.60;;
74904;SDS011;63465;50.862;6.220;2023-07-13T02:35:02;2.83;;;1.80;;
74904;SDS011;63465;50.862;6.220;2023-07-13T02:37:28;7.87;;;1.80;;
74904;SDS011;63465;50.862;6.220;2023-07-13T02:39:54;4.40;;;1.93;;
74904;SDS011;63465;50.862;6.220;2023-07-13T02:42:20;6.30;;;1.80;;
74904;SDS011;63465;50.862;6.220;2023-07-13T02:44:48;11.10;;;2.20;;
74904;SDS011;63465;50.862;6.220;2023-07-13T02:47:14;4.10;;;1.70;;
74904;SDS011;63465;50.862;6.220;2023-07-13T02:49:40;2.40;;;1.60;;
74904;SDS011;63465;50.862;6.220;2023-07-13T02:52:05;5.00;;;1.70;;
74904;SDS011;63465;50.862;6.220;2023-07-13T02:54:31;2.63;;;1.67;;
74904;SDS011;63465;50.862;6.220;2023-07-13T02:56:56;4.20;;;2.10;;
74904;SDS011;63465;50.862;6.220;2023-07-13T02:59:22;4.57;;;2.20;;
74904;SDS011;63465;50.862;6.220;2023-07-13T03:01:47;9.97;;;2.43;;
74904;SDS011;63465;50.862;6.220;2023-07-13T03:04:12;2.23;;;2.03;;
74904;SDS011;63465;50.862;6.220;2023-07-13T03:06:38;5.13;;;1.83;;
74904;SDS011;63465;50.862;6.220;2023-07-13T03:09:03;4.60;;;1.80;;
74904;SDS011;63465;50.862;6.220;2023-07-13T03:11:29;3.30;;;1.83;;
74904;SDS011;63465;50.862;6.220;2023-07-13T03:13:55;2.93;;;1.67;;
74904;SDS011;63465;50.862;6.220;2023-07-13T03:16:20;4.50;;;2.27;;
74904;SDS011;63465;50.862;6.220;2023-07-13T03:18:46;5.70;;;1.97;;
74904;SDS011;63465;50.862;6.220;2023-07-13T03:21:12;5.63;;;1.70;;
74904;SDS011;63465;50.862;6.220;2023-07-13T03:23:38;2.83;;;1.53;;
74904;SDS011;63465;50.862;6.220;2023-07-13T03:26:05;6.57;;;2.00;;
74904;SDS011;63465;50.862;6.220;2023-07-13T03:28:32;4.83;;;1.90;;
74904;SDS011;63465;50.862;6.220;2023-07-13T03:30:59;3.47;;;1.87;;
74904;SDS011;63465;50.862;6.220;2023-07-13T03:33:28;4.23;;;2.17;;
74904;SDS011;63465;50.862;6.220;2023-07-13T03:35:54;12.70;;;2.10;;
74904;SDS011;63465;50.862;6.220;2023-07-13T03:38:19;6.33;;;1.97;;
74904;SDS011;63465;50.862;6.220;2023-07-13T03:40:44;4.40;;;1.87;;
74904;SDS011;63465;50.862;6.220;2023-07-13T03:43:10;3.23;;;1.60;;
74904;SDS011;63465;50.862;6.220;2023-07-13T03:45:37;5.93;;;1.80;;
74904;SDS011;63465;50.862;6.220;2023-07-13T03:48:03;2.90;;;1.97;;
74904;SDS011;63465;50.862;6.220;2023-07-13T03:50:28;5.03;;;2.00;;
74904;SDS011;63465;50.862;6.220;2023-07-13T03:52:54;8.13;;;2.07;;
74904;SDS011;63465;50.862;6.220;2023-07-13T03:55:21;13.30;;;1.90;;
74904;SDS011;63465;50.862;6.220;2023-07-13T03:57:46;8.77;;;2.00;;
74904;SDS011;63465;50.862;6.220;2023-07-13T04:00:13;5.27;;;2.10;;
74904;SDS011;63465;50.862;6.220;2023-07-13T04:02:38;4.67;;;1.97;;
74904;SDS011;63465;50.862;6.220;2023-07-13T04:05:04;4.00;;;1.73;;
74904;SDS011;63465;50.862;6.220;2023-07-13T04:07:29;6.73;;;2.37;;
74904;SDS011;63465;50.862;6.220;2023-07-13T04:09:54;4.63;;;2.00;;
74904;SDS011;63465;50.862;6.220;2023-07-13T04:12:20;3.87;;;1.90;;
74904;SDS011;63465;50.862;6.220;2023-07-13T04:14:45;3.80;;;1.70;;
74904;SDS011;63465;50.862;6.220;2023-07-13T04:17:11;5.03;;;2.00;;
74904;SDS011;63465;50.862;6.220;2023-07-13T04:19:36;5.03;;;2.00;;
74904;SDS011;63465;50.862;6.220;2023-07-13T04:22:01;4.53;;;2.30;;
74904;SDS011;63465;50.862;6.220;2023-07-13T04:24:26;7.00;;;2.40;;
74904;SDS011;63465;50.862;6.220;2023-07-13T04:26:52;4.83;;;2.07;;
74904;SDS011;63465;50.862;6.220;2023-07-13T04:29:17;6.07;;;2.23;;
74904;SDS011;63465;50.862;6.220;2023-07-13T04:31:42;5.50;;;1.97;;
74904;SDS011;63465;50.862;6.220;2023-07-13T04:34:08;4.43;;;2.10;;
74904;SDS011;63465;50.862;6.220;2023-07-13T04:36:33;4.47;;;1.70;;
74904;SDS011;63465;50.862;6.220;2023-07-13T04:39:01;6.00;;;1.97;;
74904;SDS011;63465;50.862;6.220;2023-07-13T04:41:26;3.03;;;1.90;;
74904;SDS011;63465;50.862;6.220;2023-07-13T04:43:53;4.57;;;1.87;;
74904;SDS011;63465;50.862;6.220;2023-07-13T04:46:18;8.70;;;2.00;;
74904;SDS011;63465;50.862;6.220;2023-07-13T04:48:44;10.90;;;2.10;;
74904;SDS011;63465;50.862;6.220;2023-07-13T04:51:09;7.73;;;2.40;;
74904;SDS011;63465;50.862;6.220;2023-07-13T04:53:35;10.10;;;2.30;;
74904;SDS011;63465;50.862;6.220;2023-07-13T04:56:00;8.00;;;2.13;;
74904;SDS011;63465;50.862;6.220;2023-07-13T04:58:26;3.43;;;1.70;;
74904;SDS011;63465;50.862;6.220;2023-07-13T05:00:52;5.17;;;1.90;;
74904;SDS011;63465;50.862;6.220;2023-07-13T05:03:18;3.40;;;1.87;;
74904;SDS011;63465;50.862;6.220;2023-07-13T05:05:53;5.23;;;2.20;;
74904;SDS011;63465;50.862;6.220;2023-07-13T05:08:20;7.43;;;1.57;;
74904;SDS011;63465;50.862;6.220;2023-07-13T05:10:45;6.00;;;2.10;;
74904;SDS011;63465;50.862;6.220;2023-07-13T05:13:11;11.83;;;2.03;;
74904;SDS011;63465;50.862;6.220;2023-07-13T05:15:36;4.77;;;1.67;;
74904;SDS011;63465;50.862;6.220;2023-07-13T05:18:01;11.90;;;2.33;;
74904;SDS011;63465;50.862;6.220;2023-07-13T05:20:27;11.93;;;1.77;;
74904;SDS011;63465;50.862;6.220;2023-07-13T05:22:52;5.43;;;2.43;;
74904;SDS011;63465;50.862;6.220;2023-07-13T05:25:17;8.37;;;2.53;;
74904;SDS011;63465;50.862;6.220;2023-07-13T05:27:43;5.50;;;2.10;;
74904;SDS011;63465;50.862;6.220;2023-07-13T05:30:10;8.10;;;2.10;;
74904;SDS011;63465;50.862;6.220;2023-07-13T05:32:36;8.60;;;2.47;;
74904;SDS011;63465;50.862;6.220;2023-07-13T05:35:02;4.60;;;2.00;;
74904;SDS011;63465;50.862;6.220;2023-07-13T05:37:27;9.10;;;2.23;;
74904;SDS011;63465;50.862;6.220;2023-07-13T05:39:53;9.73;;;2.43;;
74904;SDS011;63465;50.862;6.220;2023-07-13T05:42:18;5.80;;;2.47;;
74904;SDS011;63465;50.862;6.220;2023-07-13T05:44:46;4.20;;;2.60;;
74904;SDS011;63465;50.862;6.220;2023-07-13T05:47:11;9.00;;;2.70;;
74904;SDS011;63465;50.862;6.220;2023-07-13T05:49:39;7.50;;;2.13;;
74904;SDS011;63465;50.862;6.220;2023-07-13T05:52:04;6.93;;;2.73;;
74904;SDS011;63465;50.862;6.220;2023-07-13T05:54:30;5.43;;;2.50;;
74904;SDS011;63465;50.862;6.220;2023-07-13T05:56:55;6.27;;;3.10;;
74904;SDS011;63465;50.862;6.220;2023-07-13T05:59:21;5.50;;;2.00;;
74904;SDS011;63465;50.862;6.220;2023-07-13T06:01:46;8.77;;;2.60;;
74904;SDS011;63465;50.862;6.220;2023-07-13T06:04:11;5.80;;;2.40;;
74904;SDS011;63465;50.862;6.220;2023-07-13T06:06:36;2.10;;;1.90;;
74904;SDS011;63465;50.862;6.220;2023-07-13T06:09:02;5.07;;;2.40;;
74904;SDS011;63465;50.862;6.220;2023-07-13T06:11:27;7.63;;;2.40;;
74904;SDS011;63465;50.862;6.220;2023-07-13T06:13:54;4.30;;;2.23;;
74904;SDS011;63465;50.862;6.220;2023-07-13T06:16:20;5.50;;;2.47;;
74904;SDS011;63465;50.862;6.220;2023-07-13T06:18:45;8.57;;;2.33;;
74904;SDS011;63465;50.862;6.220;2023-07-13T06:21:13;5.63;;;2.30;;
74904;SDS011;63465;50.862;6.220;2023-07-13T06:23:40;9.20;;;2.83;;
74904;SDS011;63465;50.862;6.220;2023-07-13T06:26:06;5.03;;;2.20;;
74904;SDS011;63465;50.862;6.220;2023-07-13T06:28:32;7.90;;;2.20;;
74904;SDS011;63465;50.862;6.220;2023-07-13T06:31:00;13.70;;;2.77;;
74904;SDS011;63465;50.862;6.220;2023-07-13T06:33:25;8.73;;;2.37;;
74904;SDS011;63465;50.862;6.220;2023-07-13T06:35:51;10.53;;;3.07;;
74904;SDS011;63465;50.862;6.220;2023-07-13T06:38:17;13.00;;;2.97;;
74904;SDS011;63465;50.862;6.220;2023-07-13T06:40:42;10.93;;;3.43;;
74904;SDS011;63465;50.862;6.220;2023-07-13T06:43:07;4.23;;;2.80;;
74904;SDS011;63465;50.862;6.220;2023-07-13T06:45:39;10.93;;;2.43;;
74904;SDS011;63465;50.862;6.220;2023-07-13T06:48:07;14.53;;;3.40;;
74904;SDS011;63465;50.862;6.220;2023-07-13T06:50:32;6.83;;;2.93;;
74904;SDS011;63465;50.862;6.220;2023-07-13T06:52:58;7.43;;;2.70;;
74904;SDS011;63465;50.862;6.220;2023-07-13T06:55:24;6.70;;;2.47;;
74904;SDS011;63465;50.862;6.220;2023-07-13T06:57:50;7.97;;;3.23;;
74904;SDS011;63465;50.862;6.220;2023-07-13T07:00:15;8.90;;;3.00;;
74904;SDS011;63465;50.862;6.220;2023-07-13T07:02:40;8.20;;;3.10;;
74904;SDS011;63465;50.862;6.220;2023-07-13T07:05:06;9.50;;;3.03;;
74904;SDS011;63465;50.862;6.220;2023-07-13T07:07:31;9.07;;;2.70;;
74904;SDS011;63465;50.862;6.220;2023-07-13T07:09:57;6.10;;;2.90;;
74904;SDS011;63465;50.862;6.220;2023-07-13T07:12:22;8.53;;;3.27;;
74904;SDS011;63465;50.862;6.220;2023-07-13T07:14:47;5.30;;;2.60;;
74904;SDS011;63465;50.862;6.220;2023-07-13T07:17:12;11.80;;;3.27;;
74904;SDS011;63465;50.862;6.220;2023-07-13T07:19:38;6.77;;;2.50;;
74904;SDS011;63465;50.862;6.220;2023-07-13T07:22:03;10.60;;;2.80;;
74904;SDS011;63465;50.862;6.220;2023-07-13T07:24:29;6.10;;;2.47;;
74904;SDS011;63465;50.862;6.220;2023-07-13T07:26:54;7.50;;;3.00;;
74904;SDS011;63465;50.862;6.220;2023-07-13T07:29:19;9.93;;;2.57;;
74904;SDS011;63465;50.862;6.220;2023-07-13T07:31:45;8.67;;;2.50;;
74904;SDS011;63465;50.862;6.220;2023-07-13T07:34:10;6.63;;;2.60;;
74904;SDS011;63465;50.862;6.220;2023-07-13T07:36:36;10.43;;;2.80;;
74904;SDS011;63465;50.862;6.220;2023-07-13T07:39:01;9.00;;;2.53;;
74904;SDS011;63465;50.862;6.220;2023-07-13T07:41:26;9.17;;;2.90;;
74904;SDS011;63465;50.862;6.220;2023-07-13T07:43:52;5.57;;;2.53;;
74904;SDS011;63465;50.862;6.220;2023-07-13T07:46:17;4.80;;;2.47;;
74904;SDS011;63465;50.862;6.220;2023-07-13T07:48:42;5.93;;;2.40;;
74904;SDS011;63465;50.862;6.220;2023-07-13T07:51:08;4.53;;;2.80;;
74904;SDS011;63465;50.862;6.220;2023-07-13T07:53:34;7.40;;;2.97;;
74904;SDS011;63465;50.862;6.220;2023-07-13T07:56:00;4.13;;;2.50;;
74904;SDS011;63465;50.862;6.220;2023-07-13T07:58:25;8.70;;;3.00;;
74904;SDS011;63465;50.862;6.220;2023-07-13T08:00:50;2.47;;;2.07;;
74904;SDS011;63465;50.862;6.220;2023-07-13T08:03:16;6.20;;;2.73;;
74904;SDS011;63465;50.862;6.220;2023-07-13T08:05:41;7.67;;;2.90;;
74904;SDS011;63465;50.862;6.220;2023-07-13T08:08:06;7.50;;;3.53;;
74904;SDS011;63465;50.862;6.220;2023-07-13T08:10:32;8.70;;;2.23;;
74904;SDS011;63465;50.862;6.220;2023-07-13T08:13:00;6.83;;;2.47;;
74904;SDS011;63465;50.862;6.220;2023-07-13T08:15:25;10.97;;;2.70;;
74904;SDS011;63465;50.862;6.220;2023-07-13T08:17:51;3.23;;;2.27;;
74904;SDS011;63465;50.862;6.220;2023-07-13T08:20:16;7.40;;;2.73;;
74904;SDS011;63465;50.862;6.220;2023-07-13T08:22:41;6.07;;;2.27;;
74904;SDS011;63465;50.862;6.220;2023-07-13T08:25:07;7.17;;;2.80;;
74904;SDS011;63465;50.862;6.220;2023-07-13T08:27:32;11.93;;;2.23;;
74904;SDS011;63465;50.862;6.220;2023-07-13T08:29:58;7.00;;;2.70;;
74904;SDS011;63465;50.862;6.220;2023-07-13T08:32:23;7.60;;;1.73;;
74904;SDS011;63465;50.862;6.220;2023-07-13T08:34:49;6.37;;;2.70;;
74904;SDS011;63465;50.862;6.220;2023-07-13T08:37:15;7.33;;;2.60;;
74904;SDS011;63465;50.862;6.220;2023-07-13T08:39:41;7.80;;;2.20;;
74904;SDS011;63465;50.862;6.220;2023-07-13T08:42:28;6.77;;;2.60;;
74904;SDS011;63465;50.862;6.220;2023-07-13T08:48:23;4.37;;;2.30;;
74904;SDS011;63465;50.862;6.220;2023-07-13T08:50:51;4.70;;;2.30;;
74904;SDS011;63465;50.862;6.220;2023-07-13T08:53:21;2.70;;;2.03;;
74904;SDS011;63465;50.862;6.220;2023-07-13T08:55:51;3.93;;;2.33;;
74904;SDS011;63465;50.862;6.220;2023-07-13T08:58:23;5.20;;;2.30;;
74904;SDS011;63465;50.862;6.220;2023-07-13T09:03:52;9.00;;;2.70;;
74904;SDS011;63465;50.862;6.220;2023-07-13T09:06:31;3.60;;;1.80;;
74904;SDS011;63465;50.862;6.220;2023-07-13T09:09:20;6.70;;;2.07;;
74904;SDS011;63465;50.862;6.220;2023-07-13T09:12:04;3.83;;;1.90;;
74904;SDS011;63465;50.862;6.220;2023-07-13T09:17:16;4.57;;;2.20;;
74904;SDS011;63465;50.862;6.220;2023-07-13T09:19:45;6.10;;;2.07;;
74904;SDS011;63465;50.862;6.220;2023-07-13T09:22:15;5.43;;;2.10;;
74904;SDS011;63465;50.862;6.220;2023-07-13T09:27:23;5.60;;;2.10;;
74904;SDS011;63465;50.862;6.220;2023-07-13T09:29:58;12.70;;;2.30;;
74904;SDS011;63465;50.862;6.220;2023-07-13T09:32:30;3.70;;;1.77;;
74904;SDS011;63465;50.862;6.220;2023-07-13T09:34:57;3.63;;;1.73;;
74904;SDS011;63465;50.862;6.220;2023-07-13T09:37:23;7.47;;;2.17;;
74904;SDS011;63465;50.862;6.220;2023-07-13T09:39:55;6.73;;;2.27;;
74904;SDS011;63465;50.862;6.220;2023-07-13T09:42:23;5.30;;;2.00;;
74904;SDS011;63465;50.862;6.220;2023-07-13T09:47:21;4.97;;;2.13;;
74904;SDS011;63465;50.862;6.220;2023-07-13T09:49:58;4.53;;;2.60;;
74904;SDS011;63465;50.862;6.220;2023-07-13T09:52:26;3.60;;;1.90;;
74904;SDS011;63465;50.862;6.220;2023-07-13T09:54:52;5.17;;;2.13;;
74904;SDS011;63465;50.862;6.220;2023-07-13T09:57:23;6.03;;;2.17;;
74904;SDS011;63465;50.862;6.220;2023-07-13T09:59:51;5.40;;;2.60;;
74904;SDS011;63465;50.862;6.220;2023-07-13T10:07:30;3.47;;;1.90;;
74904;SDS011;63465;50.862;6.220;2023-07-13T10:09:58;2.63;;;2.07;;
74904;SDS011;63465;50.862;6.220;2023-07-13T10:12:26;4.10;;;2.43;;
74904;SDS011;63465;50.862;6.220;2023-07-13T10:14:54;7.33;;;2.40;;
74904;SDS011;63465;50.862;6.220;2023-07-13T10:17:25;6.63;;;2.53;;
74904;SDS011;63465;50.862;6.220;2023-07-13T10:19:55;3.17;;;1.97;;
74904;SDS011;63465;50.862;6.220;2023-07-13T10:22:28;1.63;;;1.53;;
74904;SDS011;63465;50.862;6.220;2023-07-13T10:25:01;2.53;;;1.83;;
74904;SDS011;63465;50.862;6.220;2023-07-13T10:27:32;2.10;;;1.90;;
74904;SDS011;63465;50.862;6.220;2023-07-13T10:32:36;3.87;;;2.07;;
74904;SDS011;63465;50.862;6.220;2023-07-13T10:35:01;2.33;;;2.10;;
74904;SDS011;63465;50.862;6.220;2023-07-13T10:37:29;8.33;;;2.67;;
74904;SDS011;63465;50.862;6.220;2023-07-13T10:40:01;6.10;;;2.10;;
74904;SDS011;63465;50.862;6.220;2023-07-13T10:42:31;4.47;;;2.43;;
74904;SDS011;63465;50.862;6.220;2023-07-13T10:45:01;5.37;;;2.30;;
74904;SDS011;63465;50.862;6.220;2023-07-13T10:47:36;5.40;;;2.30;;
74904;SDS011;63465;50.862;6.220;2023-07-13T10:50:04;4.07;;;2.00;;
74904;SDS011;63465;50.862;6.220;2023-07-13T10:52:47;5.70;;;2.17;;
74904;SDS011;63465;50.862;6.220;2023-07-13T10:55:37;6.30;;;1.93;;
74904;SDS011;63465;50.862;6.220;2023-07-13T10:58:03;2.33;;;1.90;;
74904;SDS011;63465;50.862;6.220;2023-07-13T11:00:46;5.90;;;2.10;;
74904;SDS011;63465;50.862;6.220;2023-07-13T11:03:22;2.90;;;1.80;;
74904;SDS011;63465;50.862;6.220;2023-07-13T11:05:49;4.17;;;2.00;;
74904;SDS011;63465;50.862;6.220;2023-07-13T11:11:32;7.00;;;2.10;;
74904;SDS011;63465;50.862;6.220;2023-07-13T11:18:49;7.23;;;1.70;;
74904;SDS011;63465;50.862;6.220;2023-07-13T11:21:21;10.40;;;2.53;;
74904;SDS011;63465;50.862;6.220;2023-07-13T11:23:52;5.33;;;1.80;;
74904;SDS011;63465;50.862;6.220;2023-07-13T11:31:40;4.37;;;1.70;;
74904;SDS011;63465;50.862;6.220;2023-07-13T11:34:10;3.63;;;1.70;;
74904;SDS011;63465;50.862;6.220;2023-07-13T11:36:39;4.03;;;1.90;;
74904;SDS011;63465;50.862;6.220;2023-07-13T11:41:56;3.60;;;1.47;;
74904;SDS011;63465;50.862;6.220;2023-07-13T11:44:25;4.70;;;1.87;;
74904;SDS011;63465;50.862;6.220;2023-07-13T11:46:57;2.47;;;1.60;;
74904;SDS011;63465;50.862;6.220;2023-07-13T11:49:30;5.90;;;2.20;;
74904;SDS011;63465;50.862;6.220;2023-07-13T11:51:57;3.03;;;1.37;;
74904;SDS011;63465;50.862;6.220;2023-07-13T11:54:31;10.83;;;1.77;;
74904;SDS011;63465;50.862;6.220;2023-07-13T11:57:03;1.47;;;1.37;;
74904;SDS011;63465;50.862;6.220;2023-07-13T11:59:39;4.23;;;2.03;;
74904;SDS011;63465;50.862;6.220;2023-07-13T12:02:08;3.23;;;1.70;;
74904;SDS011;63465;50.862;6.220;2023-07-13T12:04:41;4.10;;;1.90;;
74904;SDS011;63465;50.862;6.220;2023-07-13T12:07:08;3.73;;;1.93;;
74904;SDS011;63465;50.862;6.220;2023-07-13T12:09:40;4.20;;;1.97;;
74904;SDS011;63465;50.862;6.220;2023-07-13T12:12:28;4.80;;;1.70;;
74904;SDS011;63465;50.862;6.220;2023-07-13T12:14:54;3.73;;;1.70;;
74904;SDS011;63465;50.862;6.220;2023-07-13T12:17:21;7.47;;;2.00;;
74904;SDS011;63465;50.862;6.220;2023-07-13T12:19:48;2.50;;;1.60;;
74904;SDS011;63465;50.862;6.220;2023-07-13T12:22:17;3.27;;;2.00;;
74904;SDS011;63465;50.862;6.220;2023-07-13T12:24:45;2.83;;;1.67;;
74904;SDS011;63465;50.862;6.220;2023-07-13T12:32:42;2.13;;;1.60;;
74904;SDS011;63465;50.862;6.220;2023-07-13T12:35:14;2.10;;;1.60;;
74904;SDS011;63465;50.862;6.220;2023-07-13T12:37:43;2.40;;;1.30;;
74904;SDS011;63465;50.862;6.220;2023-07-13T12:40:17;3.23;;;1.43;;
74904;SDS011;63465;50.862;6.220;2023-07-13T12:42:46;1.70;;;1.40;;
74904;SDS011;63465;50.862;6.220;2023-07-13T12:45:24;3.00;;;1.27;;
74904;SDS011;63465;50.862;6.220;2023-07-13T12:47:58;2.27;;;1.50;;
74904;SDS011;63465;50.862;6.220;2023-07-13T12:50:50;4.43;;;1.53;;
74904;SDS011;63465;50.862;6.220;2023-07-13T12:53:21;4.53;;;1.40;;
74904;SDS011;63465;50.862;6.220;2023-07-13T12:55:53;5.23;;;1.47;;
74904;SDS011;63465;50.862;6.220;2023-07-13T12:58:27;1.93;;;1.80;;
74904;SDS011;63465;50.862;6.220;2023-07-13T13:00:58;3.13;;;1.70;;
74904;SDS011;63465;50.862;6.220;2023-07-13T13:03:30;5.57;;;1.90;;
74904;SDS011;63465;50.862;6.220;2023-07-13T13:05:59;2.90;;;1.60;;
74904;SDS011;63465;50.862;6.220;2023-07-13T13:08:30;2.23;;;1.80;;
74904;SDS011;63465;50.862;6.220;2023-07-13T13:10:56;5.00;;;1.33;;
74904;SDS011;63465;50.862;6.220;2023-07-13T13:13:21;2.23;;;1.63;;
74904;SDS011;63465;50.862;6.220;2023-07-13T13:15:47;4.23;;;1.50;;
74904;SDS011;63465;50.862;6.220;2023-07-13T13:18:22;1.97;;;1.77;;
74904;SDS011;63465;50.862;6.220;2023-07-13T13:20:49;6.60;;;1.53;;
74904;SDS011;63465;50.862;6.220;2023-07-13T13:23:17;11.50;;;1.80;;
74904;SDS011;63465;50.862;6.220;2023-07-13T13:25:45;6.40;;;1.60;;
74904;SDS011;63465;50.862;6.220;2023-07-13T13:28:18;4.97;;;1.73;;
74904;SDS011;63465;50.862;6.220;2023-07-13T13:30:45;3.93;;;1.90;;
74904;SDS011;63465;50.862;6.220;2023-07-13T13:33:14;3.13;;;1.87;;
74904;SDS011;63465;50.862;6.220;2023-07-13T13:35:42;4.23;;;1.70;;
74904;SDS011;63465;50.862;6.220;2023-07-13T13:40:43;2.97;;;1.60;;
74904;SDS011;63465;50.862;6.220;2023-07-13T13:45:45;1.83;;;1.70;;
74904;SDS011;63465;50.862;6.220;2023-07-13T13:48:18;1.40;;;1.30;;
74904;SDS011;63465;50.862;6.220;2023-07-13T13:50:46;3.00;;;1.70;;
74904;SDS011;63465;50.862;6.220;2023-07-13T13:53:12;2.70;;;1.50;;
74904;SDS011;63465;50.862;6.220;2023-07-13T13:55:39;1.63;;;1.17;;
74904;SDS011;63465;50.862;6.220;2023-07-13T13:58:06;3.10;;;1.50;;
74904;SDS011;63465;50.862;6.220;2023-07-13T14:00:35;2.77;;;1.70;;
74904;SDS011;63465;50.862;6.220;2023-07-13T14:03:04;1.40;;;1.30;;
74904;SDS011;63465;50.862;6.220;2023-07-13T14:05:31;3.20;;;1.67;;
74904;SDS011;63465;50.862;6.220;2023-07-13T14:07:57;1.60;;;1.50;;
74904;SDS011;63465;50.862;6.220;2023-07-13T14:10:22;2.17;;;1.23;;
74904;SDS011;63465;50.862;6.220;2023-07-13T14:12:50;4.97;;;1.40;;
74904;SDS011;63465;50.862;6.220;2023-07-13T14:15:20;2.03;;;1.30;;
74904;SDS011;63465;50.862;6.220;2023-07-13T14:17:48;4.57;;;1.67;;
74904;SDS011;63465;50.862;6.220;2023-07-13T14:20:15;2.63;;;1.60;;
74904;SDS011;63465;50.862;6.220;2023-07-13T14:22:41;2.07;;;1.50;;
74904;SDS011;63465;50.862;6.220;2023-07-13T14:25:10;4.13;;;1.30;;
74904;SDS011;63465;50.862;6.220;2023-07-13T14:27:36;4.07;;;2.43;;
74904;SDS011;63465;50.862;6.220;2023-07-13T14:30:01;4.93;;;1.60;;
74904;SDS011;63465;50.862;6.220;2023-07-13T14:32:27;5.27;;;1.50;;
74904;SDS011;63465;50.862;6.220;2023-07-13T14:34:52;2.00;;;1.80;;
74904;SDS011;63465;50.862;6.220;2023-07-13T14:37:18;3.17;;;1.40;;
74904;SDS011;63465;50.862;6.220;2023-07-13T14:39:44;5.00;;;1.47;;
74904;SDS011;63465;50.862;6.220;2023-07-13T14:45:33;1.47;;;1.37;;
74904;SDS011;63465;50.862;6.220;2023-07-13T14:48:01;3.43;;;2.17;;
74904;SDS011;63465;50.862;6.220;2023-07-13T14:50:28;2.23;;;1.30;;
74904;SDS011;63465;50.862;6.220;2023-07-13T14:52:57;3.00;;;1.63;;
74904;SDS011;63465;50.862;6.220;2023-07-13T14:55:22;1.67;;;1.40;;
74904;SDS011;63465;50.862;6.220;2023-07-13T14:57:48;2.33;;;1.43;;
74904;SDS011;63465;50.862;6.220;2023-07-13T15:00:15;4.03;;;1.47;;
74904;SDS011;63465;50.862;6.220;2023-07-13T15:02:43;3.53;;;1.60;;
74904;SDS011;63465;50.862;6.220;2023-07-13T15:05:13;4.00;;;1.47;;
74904;SDS011;63465;50.862;6.220;2023-07-13T15:07:48;4.10;;;1.70;;
74904;SDS011;63465;50.862;6.220;2023-07-13T15:10:18;3.07;;;1.30;;
74904;SDS011;63465;50.862;6.220;2023-07-13T15:12:50;4.73;;;1.80;;
74904;SDS011;63465;50.862;6.220;2023-07-13T15:15:16;3.30;;;1.80;;
74904;SDS011;63465;50.862;6.220;2023-07-13T15:17:42;6.93;;;2.07;;
74904;SDS011;63465;50.862;6.220;2023-07-13T15:20:17;3.47;;;2.20;;
74904;SDS011;63465;50.862;6.220;2023-07-13T15:22:46;9.00;;;2.03;;
74904;SDS011;63465;50.862;6.220;2023-07-13T15:25:19;5.50;;;2.00;;
74904;SDS011;63465;50.862;6.220;2023-07-13T15:27:46;9.57;;;2.10;;
74904;SDS011;63465;50.862;6.220;2023-07-13T15:30:11;2.23;;;1.70;;
74904;SDS011;63465;50.862;6.220;2023-07-13T15:32:38;3.10;;;2.20;;
74904;SDS011;63465;50.862;6.220;2023-07-13T15:35:04;5.00;;;2.37;;
74904;SDS011;63465;50.862;6.220;2023-07-13T15:37:30;7.53;;;2.13;;
74904;SDS011;63465;50.862;6.220;2023-07-13T15:39:55;5.73;;;1.97;;
74904;SDS011;63465;50.862;6.220;2023-07-13T15:42:20;7.73;;;3.17;;
74904;SDS011;63465;50.862;6.220;2023-07-13T15:44:47;8.03;;;2.07;;
74904;SDS011;63465;50.862;6.220;2023-07-13T15:47:13;3.57;;;2.30;;
74904;SDS011;63465;50.862;6.220;2023-07-13T15:49:39;3.73;;;2.30;;
74904;SDS011;63465;50.862;6.220;2023-07-13T15:52:10;9.93;;;2.17;;
74904;SDS011;63465;50.862;6.220;2023-07-13T15:54:43;4.00;;;2.67;;